sensor_id;sensor_type;location;lat;lon;timestamp;pressure;altitude;pressure_sealevel;temperature;humidity
72677;BME280;60755;51.374;10.662;2023-07-31T00:01:57;96897.06;;;15.97;86.19
72677;BME280;60755;51.374;10.662;2023-07-31T00:04:24;96887.78;;;15.94;87.35
72677;BME280;60755;51.374;10.662;2023-07-31T00:06:52;96884.22;;;15.75;89.65
72677;BME280;60755;51.374;10.662;2023-07-31T00:09:19;96887.41;;;15.72;90.66
72677;BME280;60755;51.374;10.662;2023-07-31T00:11:46;96880.88;;;15.64;90.99
72677;BME280;60755;51.374;10.662;2023-07-31T00:14:13;96875.28;;;15.60;92.69
72677;BME280;60755;51.374;10.662;2023-07-31T00:16:40;96866.06;;;15.53;92.07
72677;BME280;60755;51.374;10.662;2023-07-31T00:19:07;96860.78;;;15.48;93.66
72677;BME280;60755;51.374;10.662;2023-07-31T00:21:34;96862.41;;;15.49;92.77
72677;BME280;60755;51.374;10.662;2023-07-31T00:24:03;96864.84;;;15.40;92.79
72677;BME280;60755;51.374;10.662;2023-07-31T00:26:30;96856.84;;;15.45;94.80
72677;BME280;60755;51.374;10.662;2023-07-31T00:28:58;96853.13;;;15.46;93.26
72677;BME280;60755;51.374;10.662;2023-07-31T00:31:25;96858.97;;;15.43;92.90
72677;BME280;60755;51.374;10.662;2023-07-31T00:33:52;96853.19;;;15.41;94.30
72677;BME280;60755;51.374;10.662;2023-07-31T00:36:19;96849.19;;;15.44;93.66
72677;BME280;60755;51.374;10.662;2023-07-31T00:38:46;96849.41;;;15.47;92.35
72677;BME280;60755;51.374;10.662;2023-07-31T00:41:14;96847.28;;;15.49;93.82
72677;BME280;60755;51.374;10.662;2023-07-31T00:43:41;96844.97;;;15.37;94.49
72677;BME280;60755;51.374;10.662;2023-07-31T00:46:08;96851.09;;;15.33;94.27
72677;BME280;60755;51.374;10.662;2023-07-31T00:48:37;96846.31;;;15.35;94.59
72677;BME280;60755;51.374;10.662;2023-07-31T00:51:05;96845.75;;;15.38;94.45
72677;BME280;60755;51.374;10.662;2023-07-31T00:53:35;96843.69;;;15.30;95.39
72677;BME280;60755;51.374;10.662;2023-07-31T00:56:03;96828.59;;;15.30;96.06
72677;BME280;60755;51.374;10.662;2023-07-31T00:58:32;96831.59;;;15.19;96.75
72677;BME280;60755;51.374;10.662;2023-07-31T01:00:59;96823.34;;;15.25;97.45
72677;BME280;60755;51.374;10.662;2023-07-31T01:03:26;96820.16;;;15.28;95.96
72677;BME280;60755;51.374;10.662;2023-07-31T01:06:07;96820.97;;;15.24;95.73
72677;BME280;60755;51.374;10.662;2023-07-31T01:08:40;96818.38;;;15.14;97.05
72677;BME280;60755;51.374;10.662;2023-07-31T01:11:15;96811.28;;;15.09;96.93
72677;BME280;60755;51.374;10.662;2023-07-31T01:13:45;96807.22;;;15.22;98.22
72677;BME280;60755;51.374;10.662;2023-07-31T01:16:12;96807.50;;;15.15;97.55
72677;BME280;60755;51.374;10.662;2023-07-31T01:18:39;96807.25;;;15.17;97.17
72677;BME280;60755;51.374;10.662;2023-07-31T01:21:20;96800.06;;;15.22;97.62
72677;BME280;60755;51.374;10.662;2023-07-31T01:24:08;96799.00;;;15.23;96.99
72677;BME280;60755;51.374;10.662;2023-07-31T01:26:45;96795.44;;;15.38;95.94
72677;BME280;60755;51.374;10.662;2023-07-31T01:29:20;96791.84;;;15.24;97.11
72677;BME280;60755;51.374;10.662;2023-07-31T01:31:53;96783.94;;;15.19;96.63
72677;BME280;60755;51.374;10.662;2023-07-31T01:34:22;96781.31;;;15.14;97.30
72677;BME280;60755;51.374;10.662;2023-07-31T01:36:50;96779.19;;;15.16;97.54
72677;BME280;60755;51.374;10.662;2023-07-31T01:39:19;96779.19;;;15.16;96.98
72677;BME280;60755;51.374;10.662;2023-07-31T01:41:48;96773.16;;;15.10;97.26
72677;BME280;60755;51.374;10.662;2023-07-31T01:44:15;96764.91;;;15.17;97.07
72677;BME280;60755;51.374;10.662;2023-07-31T01:46:42;96756.75;;;15.08;97.87
72677;BME280;60755;51.374;10.662;2023-07-31T01:49:09;96760.00;;;15.00;98.47
72677;BME280;60755;51.374;10.662;2023-07-31T01:51:36;96753.34;;;15.02;97.48
72677;BME280;60755;51.374;10.662;2023-07-31T01:54:03;96752.78;;;15.05;97.68
72677;BME280;60755;51.374;10.662;2023-07-31T01:56:31;96749.34;;;15.05;98.13
72677;BME280;60755;51.374;10.662;2023-07-31T01:59:00;96746.38;;;15.17;97.32
72677;BME280;60755;51.374;10.662;2023-07-31T02:01:26;96750.66;;;15.07;96.70
72677;BME280;60755;51.374;10.662;2023-07-31T02:03:53;96738.53;;;15.01;96.93
72677;BME280;60755;51.374;10.662;2023-07-31T02:06:22;96742.03;;;14.92;98.07
72677;BME280;60755;51.374;10.662;2023-07-31T02:08:49;96738.78;;;15.05;97.67
72677;BME280;60755;51.374;10.662;2023-07-31T02:11:16;96738.50;;;15.06;97.67
72677;BME280;60755;51.374;10.662;2023-07-31T02:13:43;96735.91;;;15.01;97.19
72677;BME280;60755;51.374;10.662;2023-07-31T02:16:11;96739.34;;;15.02;97.30
72677;BME280;60755;51.374;10.662;2023-07-31T02:18:38;96743.25;;;15.09;96.22
72677;BME280;60755;51.374;10.662;2023-07-31T02:21:05;96733.75;;;15.03;97.05
72677;BME280;60755;51.374;10.662;2023-07-31T02:23:32;96736.38;;;15.08;96.30
72677;BME280;60755;51.374;10.662;2023-07-31T02:25:59;96737.16;;;15.09;97.28
72677;BME280;60755;51.374;10.662;2023-07-31T02:28:26;96736.84;;;15.16;96.37
72677;BME280;60755;51.374;10.662;2023-07-31T02:30:53;96729.94;;;15.20;95.31
72677;BME280;60755;51.374;10.662;2023-07-31T02:33:21;96733.19;;;15.06;95.89
72677;BME280;60755;51.374;10.662;2023-07-31T02:35:48;96722.59;;;15.06;95.87
72677;BME280;60755;51.374;10.662;2023-07-31T02:38:15;96720.03;;;15.01;97.44
72677;BME280;60755;51.374;10.662;2023-07-31T02:40:42;96715.25;;;14.98;97.38
72677;BME280;60755;51.374;10.662;2023-07-31T02:43:09;96719.72;;;15.08;96.41
72677;BME280;60755;51.374;10.662;2023-07-31T02:45:36;96706.53;;;14.98;97.03
72677;BME280;60755;51.374;10.662;2023-07-31T02:48:03;96712.81;;;15.07;95.65
72677;BME280;60755;51.374;10.662;2023-07-31T02:50:32;96707.72;;;15.16;95.26
72677;BME280;60755;51.374;10.662;2023-07-31T02:52:59;96712.47;;;15.19;94.98
72677;BME280;60755;51.374;10.662;2023-07-31T02:55:26;96710.91;;;15.18;94.25
72677;BME280;60755;51.374;10.662;2023-07-31T02:57:53;96706.69;;;15.17;94.88
72677;BME280;60755;51.374;10.662;2023-07-31T03:00:20;96700.84;;;15.15;95.17
72677;BME280;60755;51.374;10.662;2023-07-31T03:02:47;96700.25;;;15.23;94.25
72677;BME280;60755;51.374;10.662;2023-07-31T03:05:14;96698.69;;;15.22;93.85
72677;BME280;60755;51.374;10.662;2023-07-31T03:07:43;96709.78;;;15.24;93.74
72677;BME280;60755;51.374;10.662;2023-07-31T03:10:10;96699.00;;;15.15;94.11
72677;BME280;60755;51.374;10.662;2023-07-31T03:12:37;96702.88;;;15.28;92.99
72677;BME280;60755;51.374;10.662;2023-07-31T03:15:04;96705.00;;;15.26;93.74
72677;BME280;60755;51.374;10.662;2023-07-31T03:17:31;96702.31;;;15.31;93.08
72677;BME280;60755;51.374;10.662;2023-07-31T03:19:58;96693.16;;;15.18;94.74
72677;BME280;60755;51.374;10.662;2023-07-31T03:22:25;96698.69;;;15.22;94.89
72677;BME280;60755;51.374;10.662;2023-07-31T03:24:54;96702.06;;;15.32;92.94
72677;BME280;60755;51.374;10.662;2023-07-31T03:27:20;96693.44;;;15.17;94.30
72677;BME280;60755;51.374;10.662;2023-07-31T03:29:47;96692.91;;;15.15;94.80
72677;BME280;60755;51.374;10.662;2023-07-31T03:32:16;96694.72;;;15.19;94.46
72677;BME280;60755;51.374;10.662;2023-07-31T03:34:43;96691.81;;;15.21;93.90
72677;BME280;60755;51.374;10.662;2023-07-31T03:37:10;96692.88;;;15.20;94.25
72677;BME280;60755;51.374;10.662;2023-07-31T03:39:37;96686.13;;;15.03;95.89
72677;BME280;60755;51.374;10.662;2023-07-31T03:42:06;96693.09;;;15.23;94.76
72677;BME280;60755;51.374;10.662;2023-07-31T03:44:33;96692.91;;;15.15;94.46
72677;BME280;60755;51.374;10.662;2023-07-31T03:47:00;96687.38;;;15.16;94.76
72677;BME280;60755;51.374;10.662;2023-07-31T03:49:27;96692.13;;;15.14;95.48
72677;BME280;60755;51.374;10.662;2023-07-31T03:52:16;96699.56;;;15.12;95.35
72677;BME280;60755;51.374;10.662;2023-07-31T03:54:43;96697.66;;;15.18;95.58
72677;BME280;60755;51.374;10.662;2023-07-31T03:57:11;96686.13;;;15.03;94.81
72677;BME280;60755;51.374;10.662;2023-07-31T03:59:38;96686.88;;;15.09;96.58
72677;BME280;60755;51.374;10.662;2023-07-31T04:02:05;96682.84;;;15.17;96.40
72677;BME280;60755;51.374;10.662;2023-07-31T04:04:32;96686.81;;;15.14;96.41
72677;BME280;60755;51.374;10.662;2023-07-31T04:06:59;96687.31;;;15.21;95.52
72677;BME280;60755;51.374;10.662;2023-07-31T04:09:26;96682.78;;;15.22;94.88
72677;BME280;60755;51.374;10.662;2023-07-31T04:11:53;96680.63;;;15.29;95.09
72677;BME280;60755;51.374;10.662;2023-07-31T04:14:21;96682.78;;;15.22;95.43
72677;BME280;60755;51.374;10.662;2023-07-31T04:16:48;96681.06;;;15.07;97.12
72677;BME280;60755;51.374;10.662;2023-07-31T04:19:17;96691.63;;;15.12;96.62
72677;BME280;60755;51.374;10.662;2023-07-31T04:21:44;96687.88;;;15.18;95.75
72677;BME280;60755;51.374;10.662;2023-07-31T04:24:11;96695.03;;;15.18;96.36
72677;BME280;60755;51.374;10.662;2023-07-31T04:26:38;96691.78;;;15.26;95.61
72677;BME280;60755;51.374;10.662;2023-07-31T04:29:05;96687.00;;;15.23;95.31
72677;BME280;60755;51.374;10.662;2023-07-31T04:31:34;96684.84;;;15.30;95.47
72677;BME280;60755;51.374;10.662;2023-07-31T04:34:01;96688.28;;;15.30;95.28
72677;BME280;60755;51.374;10.662;2023-07-31T04:36:28;96692.78;;;15.30;95.00
72677;BME280;60755;51.374;10.662;2023-07-31T04:38:55;96683.41;;;15.43;94.85
72677;BME280;60755;51.374;10.662;2023-07-31T04:41:22;96683.41;;;15.43;94.23
72677;BME280;60755;51.374;10.662;2023-07-31T04:43:49;96680.53;;;15.39;95.05
72677;BME280;60755;51.374;10.662;2023-07-31T04:46:15;96683.00;;;15.59;93.71
72677;BME280;60755;51.374;10.662;2023-07-31T04:48:44;96690.44;;;15.57;93.81
72677;BME280;60755;51.374;10.662;2023-07-31T04:51:11;96701.53;;;15.64;93.72
72677;BME280;60755;51.374;10.662;2023-07-31T04:53:38;96693.03;;;15.62;93.31
72677;BME280;60755;51.374;10.662;2023-07-31T04:56:05;96688.59;;;15.53;93.59
72677;BME280;60755;51.374;10.662;2023-07-31T04:58:32;96695.66;;;15.68;93.45
72677;BME280;60755;51.374;10.662;2023-07-31T05:00:59;96698.19;;;15.78;92.62
72677;BME280;60755;51.374;10.662;2023-07-31T05:03:26;96685.41;;;15.85;92.03
72677;BME280;60755;51.374;10.662;2023-07-31T05:05:54;96681.97;;;15.84;92.29
72677;BME280;60755;51.374;10.662;2023-07-31T05:08:21;96681.84;;;15.71;91.88
72677;BME280;60755;51.374;10.662;2023-07-31T05:10:48;96692.56;;;15.84;92.56
72677;BME280;60755;51.374;10.662;2023-07-31T05:13:15;96687.91;;;16.19;91.30
72677;BME280;60755;51.374;10.662;2023-07-31T05:15:42;96688.34;;;16.07;91.03
72677;BME280;60755;51.374;10.662;2023-07-31T05:18:09;96684.47;;;16.18;90.33
72677;BME280;60755;51.374;10.662;2023-07-31T05:20:36;96686.06;;;16.19;90.87
72677;BME280;60755;51.374;10.662;2023-07-31T05:23:04;96678.25;;;16.28;89.73
72677;BME280;60755;51.374;10.662;2023-07-31T05:25:31;96678.69;;;16.35;89.65
72677;BME280;60755;51.374;10.662;2023-07-31T05:27:58;96682.13;;;16.36;88.98
72677;BME280;60755;51.374;10.662;2023-07-31T05:30:25;96681.88;;;16.37;88.87
72677;BME280;60755;51.374;10.662;2023-07-31T05:32:53;96683.66;;;16.42;88.59
72677;BME280;60755;51.374;10.662;2023-07-31T05:35:19;96679.47;;;16.36;88.96
72677;BME280;60755;51.374;10.662;2023-07-31T05:37:46;96686.38;;;16.37;89.20
72677;BME280;60755;51.374;10.662;2023-07-31T05:40:15;96687.22;;;16.32;88.71
72677;BME280;60755;51.374;10.662;2023-07-31T05:42:42;96689.31;;;16.35;88.98
72677;BME280;60755;51.374;10.662;2023-07-31T05:45:09;96691.69;;;16.56;88.46
72677;BME280;60755;51.374;10.662;2023-07-31T05:47:36;96682.78;;;16.70;87.99
72677;BME280;60755;51.374;10.662;2023-07-31T05:50:04;96688.66;;;16.86;87.58
72677;BME280;60755;51.374;10.662;2023-07-31T05:52:31;96687.72;;;16.77;86.80
72677;BME280;60755;51.374;10.662;2023-07-31T05:54:58;96687.88;;;16.86;86.43
72677;BME280;60755;51.374;10.662;2023-07-31T05:57:26;96678.66;;;16.97;86.49
72677;BME280;60755;51.374;10.662;2023-07-31T05:59:53;96678.97;;;16.95;86.14
72677;BME280;60755;51.374;10.662;2023-07-31T06:02:20;96674.38;;;17.01;85.93
72677;BME280;60755;51.374;10.662;2023-07-31T06:04:47;96686.28;;;16.85;86.67
72677;BME280;60755;51.374;10.662;2023-07-31T06:07:14;96684.91;;;16.87;87.46
72677;BME280;60755;51.374;10.662;2023-07-31T06:09:41;96679.75;;;16.96;87.01
72677;BME280;60755;51.374;10.662;2023-07-31T06:12:08;96672.19;;;17.03;85.53
72677;BME280;60755;51.374;10.662;2023-07-31T06:14:37;96679.66;;;17.01;86.03
72677;BME280;60755;51.374;10.662;2023-07-31T06:17:04;96676.56;;;17.13;85.64
72677;BME280;60755;51.374;10.662;2023-07-31T06:19:31;96674.72;;;16.94;85.72
72677;BME280;60755;51.374;10.662;2023-07-31T06:21:58;96675.88;;;16.88;86.78
72677;BME280;60755;51.374;10.662;2023-07-31T06:24:25;96676.00;;;16.97;86.48
72677;BME280;60755;51.374;10.662;2023-07-31T06:26:52;96683.97;;;16.97;86.95
72677;BME280;60755;51.374;10.662;2023-07-31T06:29:19;96688.28;;;16.93;87.80
72677;BME280;60755;51.374;10.662;2023-07-31T06:31:47;96687.28;;;16.89;87.17
72677;BME280;60755;51.374;10.662;2023-07-31T06:34:14;96685.28;;;16.81;87.75
72677;BME280;60755;51.374;10.662;2023-07-31T06:36:41;96674.66;;;16.81;87.67
72677;BME280;60755;51.374;10.662;2023-07-31T06:39:08;96681.22;;;16.64;87.90
72677;BME280;60755;51.374;10.662;2023-07-31T06:41:35;96684.22;;;17.14;86.42
72677;BME280;60755;51.374;10.662;2023-07-31T06:44:05;96678.22;;;17.55;85.42
72677;BME280;60755;51.374;10.662;2023-07-31T06:46:32;96676.53;;;17.92;82.95
72677;BME280;60755;51.374;10.662;2023-07-31T06:49:00;96679.16;;;18.33;81.66
72677;BME280;60755;51.374;10.662;2023-07-31T06:51:27;96683.59;;;18.37;81.34
72677;BME280;60755;51.374;10.662;2023-07-31T06:53:57;96688.72;;;18.20;80.19
72677;BME280;60755;51.374;10.662;2023-07-31T06:56:23;96689.03;;;18.05;80.21
72677;BME280;60755;51.374;10.662;2023-07-31T06:58:51;96691.28;;;18.25;80.66
72677;BME280;60755;51.374;10.662;2023-07-31T07:01:18;96678.47;;;18.41;80.61
72677;BME280;60755;51.374;10.662;2023-07-31T07:03:45;96679.81;;;18.52;80.04
72677;BME280;60755;51.374;10.662;2023-07-31T07:06:14;96674.69;;;18.56;79.03
72677;BME280;60755;51.374;10.662;2023-07-31T07:08:40;96685.19;;;18.25;80.02
72677;BME280;60755;51.374;10.662;2023-07-31T07:11:07;96687.13;;;18.47;79.65
72677;BME280;60755;51.374;10.662;2023-07-31T07:13:34;96683.84;;;18.77;78.69
72677;BME280;60755;51.374;10.662;2023-07-31T07:16:01;96686.66;;;18.81;78.30
72677;BME280;60755;51.374;10.662;2023-07-31T07:18:28;96682.38;;;18.71;78.90
72677;BME280;60755;51.374;10.662;2023-07-31T07:20:56;96677.16;;;18.66;78.79
72677;BME280;60755;51.374;10.662;2023-07-31T07:23:25;96688.56;;;18.66;81.07
72677;BME280;60755;51.374;10.662;2023-07-31T07:25:52;96675.53;;;18.65;78.94
72677;BME280;60755;51.374;10.662;2023-07-31T07:28:20;96686.00;;;18.75;78.67
72677;BME280;60755;51.374;10.662;2023-07-31T07:30:51;96681.41;;;18.39;80.55
72677;BME280;60755;51.374;10.662;2023-07-31T07:33:18;96683.31;;;17.84;83.88
72677;BME280;60755;51.374;10.662;2023-07-31T07:35:45;96689.72;;;17.83;84.64
72677;BME280;60755;51.374;10.662;2023-07-31T07:38:13;96697.19;;;17.34;87.84
72677;BME280;60755;51.374;10.662;2023-07-31T07:40:42;96705.81;;;17.26;88.17
72677;BME280;60755;51.374;10.662;2023-07-31T07:43:09;96704.91;;;17.17;89.33
72677;BME280;60755;51.374;10.662;2023-07-31T07:45:36;96708.06;;;17.19;89.92
72677;BME280;60755;51.374;10.662;2023-07-31T07:48:03;96715.09;;;17.10;91.14
72677;BME280;60755;51.374;10.662;2023-07-31T07:50:30;96696.53;;;16.91;92.18
72677;BME280;60755;51.374;10.662;2023-07-31T07:52:58;96697.47;;;16.82;93.21
72677;BME280;60755;51.374;10.662;2023-07-31T07:55:24;96703.13;;;16.94;92.81
72677;BME280;60755;51.374;10.662;2023-07-31T07:57:53;96700.38;;;16.61;93.83
72677;BME280;60755;51.374;10.662;2023-07-31T08:00:20;96697.81;;;16.75;96.17
72677;BME280;60755;51.374;10.662;2023-07-31T08:02:47;96697.09;;;16.88;94.36
72677;BME280;60755;51.374;10.662;2023-07-31T08:05:14;96697.97;;;16.84;93.73
72677;BME280;60755;51.374;10.662;2023-07-31T08:07:43;96704.00;;;16.89;93.40
72677;BME280;60755;51.374;10.662;2023-07-31T08:10:10;96696.38;;;16.83;93.66
72677;BME280;60755;51.374;10.662;2023-07-31T08:12:37;96690.06;;;16.97;93.02
72677;BME280;60755;51.374;10.662;2023-07-31T08:15:06;96700.38;;;17.18;91.60
72677;BME280;60755;51.374;10.662;2023-07-31T08:17:33;96697.97;;;17.02;91.54
72677;BME280;60755;51.374;10.662;2023-07-31T08:20:00;96701.03;;;17.10;92.68
72677;BME280;60755;51.374;10.662;2023-07-31T08:22:28;96693.16;;;17.37;91.14
72677;BME280;60755;51.374;10.662;2023-07-31T08:24:55;96691.69;;;17.91;90.38
72677;BME280;60755;51.374;10.662;2023-07-31T08:27:22;96691.47;;;18.42;86.69
72677;BME280;60755;51.374;10.662;2023-07-31T08:29:49;96677.69;;;18.77;82.44
72677;BME280;60755;51.374;10.662;2023-07-31T08:32:17;96677.97;;;19.34;81.86
72677;BME280;60755;51.374;10.662;2023-07-31T08:34:44;96678.06;;;19.73;80.22
72677;BME280;60755;51.374;10.662;2023-07-31T08:37:11;96665.25;;;20.50;77.56
72677;BME280;60755;51.374;10.662;2023-07-31T08:39:38;96666.31;;;20.31;78.65
72677;BME280;60755;51.374;10.662;2023-07-31T08:42:08;96673.84;;;20.38;77.39
72677;BME280;60755;51.374;10.662;2023-07-31T08:44:35;96678.59;;;19.93;76.72
72677;BME280;60755;51.374;10.662;2023-07-31T08:47:03;96671.94;;;19.50;78.00
72677;BME280;60755;51.374;10.662;2023-07-31T08:49:32;96659.53;;;19.77;78.30
72677;BME280;60755;51.374;10.662;2023-07-31T08:52:00;96655.63;;;20.31;76.71
72677;BME280;60755;51.374;10.662;2023-07-31T08:54:28;96657.72;;;20.52;75.54
72677;BME280;60755;51.374;10.662;2023-07-31T08:56:57;96655.22;;;20.81;74.88
72677;BME280;60755;51.374;10.662;2023-07-31T08:59:26;96651.13;;;20.84;72.71
72677;BME280;60755;51.374;10.662;2023-07-31T09:01:55;96652.72;;;21.02;73.64
72677;BME280;60755;51.374;10.662;2023-07-31T09:04:24;96645.44;;;21.29;72.78
72677;BME280;60755;51.374;10.662;2023-07-31T09:06:57;96648.56;;;21.39;72.53
72677;BME280;60755;51.374;10.662;2023-07-31T09:09:26;96645.19;;;20.87;70.75
72677;BME280;60755;51.374;10.662;2023-07-31T09:11:53;96648.31;;;20.89;71.29
72677;BME280;60755;51.374;10.662;2023-07-31T09:14:21;96639.50;;;20.88;71.00
72677;BME280;60755;51.374;10.662;2023-07-31T09:16:52;96639.81;;;20.61;72.44
72677;BME280;60755;51.374;10.662;2023-07-31T09:19:27;96642.00;;;20.76;71.46
72677;BME280;60755;51.374;10.662;2023-07-31T09:21:55;96639.94;;;20.38;72.73
72677;BME280;60755;51.374;10.662;2023-07-31T09:24:26;96643.72;;;19.80;73.72
72677;BME280;60755;51.374;10.662;2023-07-31T09:26:54;96653.59;;;19.80;74.94
72677;BME280;60755;51.374;10.662;2023-07-31T09:29:22;96653.16;;;19.87;74.62
72677;BME280;60755;51.374;10.662;2023-07-31T09:31:50;96649.44;;;20.05;74.96
72677;BME280;60755;51.374;10.662;2023-07-31T09:34:17;96650.41;;;19.69;75.52
72677;BME280;60755;51.374;10.662;2023-07-31T09:36:46;96654.59;;;19.93;75.46
72677;BME280;60755;51.374;10.662;2023-07-31T09:39:16;96655.22;;;19.90;76.12
72677;BME280;60755;51.374;10.662;2023-07-31T09:41:44;96651.53;;;19.77;77.49
72677;BME280;60755;51.374;10.662;2023-07-31T09:44:12;96654.09;;;19.82;76.50
72677;BME280;60755;51.374;10.662;2023-07-31T09:46:39;96650.91;;;19.80;77.45
72677;BME280;60755;51.374;10.662;2023-07-31T09:49:07;96655.00;;;19.77;77.15
72677;BME280;60755;51.374;10.662;2023-07-31T09:51:35;96653.84;;;19.39;78.59
72677;BME280;60755;51.374;10.662;2023-07-31T09:54:09;96660.19;;;19.51;77.98
72677;BME280;60755;51.374;10.662;2023-07-31T09:56:41;96649.22;;;19.53;77.99
72677;BME280;60755;51.374;10.662;2023-07-31T09:59:11;96652.47;;;19.41;79.77
72677;BME280;60755;51.374;10.662;2023-07-31T10:01:39;96650.09;;;19.40;79.59
72677;BME280;60755;51.374;10.662;2023-07-31T10:04:07;96641.09;;;19.27;79.02
72677;BME280;60755;51.374;10.662;2023-07-31T10:06:35;96640.81;;;19.06;80.02
72677;BME280;60755;51.374;10.662;2023-07-31T10:09:05;96635.66;;;19.41;79.21
72677;BME280;60755;51.374;10.662;2023-07-31T10:11:37;96631.25;;;19.59;78.48
72677;BME280;60755;51.374;10.662;2023-07-31T10:14:07;96632.94;;;19.32;79.78
72677;BME280;60755;51.374;10.662;2023-07-31T10:16:35;96630.66;;;19.17;79.76
72677;BME280;60755;51.374;10.662;2023-07-31T10:19:02;96619.22;;;19.16;79.69
72677;BME280;60755;51.374;10.662;2023-07-31T10:21:31;96623.13;;;18.88;80.53
72677;BME280;60755;51.374;10.662;2023-07-31T10:24:02;96630.03;;;19.11;82.55
72677;BME280;60755;51.374;10.662;2023-07-31T10:26:31;96614.19;;;19.68;78.43
72677;BME280;60755;51.374;10.662;2023-07-31T10:28:58;96612.38;;;19.95;76.28
72677;BME280;60755;51.374;10.662;2023-07-31T10:31:27;96613.09;;;20.44;75.32
72677;BME280;60755;51.374;10.662;2023-07-31T10:33:55;96612.28;;;20.26;75.28
72677;BME280;60755;51.374;10.662;2023-07-31T10:36:22;96611.84;;;20.76;76.04
72677;BME280;60755;51.374;10.662;2023-07-31T10:38:49;96607.63;;;20.75;76.21
72677;BME280;60755;51.374;10.662;2023-07-31T10:41:17;96600.25;;;20.72;72.29
72677;BME280;60755;51.374;10.662;2023-07-31T10:43:46;96606.19;;;20.77;73.62
72677;BME280;60755;51.374;10.662;2023-07-31T10:46:13;96595.34;;;20.91;72.25
72677;BME280;60755;51.374;10.662;2023-07-31T10:48:42;96591.41;;;20.97;71.68
72677;BME280;60755;51.374;10.662;2023-07-31T10:51:10;96599.38;;;21.14;71.73
72677;BME280;60755;51.374;10.662;2023-07-31T10:53:39;96596.75;;;20.97;71.06
72677;BME280;60755;51.374;10.662;2023-07-31T10:56:08;96591.81;;;21.16;70.81
72677;BME280;60755;51.374;10.662;2023-07-31T10:58:38;96584.84;;;20.60;72.21
72677;BME280;60755;51.374;10.662;2023-07-31T11:01:06;96595.69;;;20.81;73.20
72677;BME280;60755;51.374;10.662;2023-07-31T11:03:45;96604.56;;;21.19;70.55
72677;BME280;60755;51.374;10.662;2023-07-31T11:06:13;96591.88;;;20.99;71.98
72677;BME280;60755;51.374;10.662;2023-07-31T11:08:44;96594.66;;;21.20;70.82
72677;BME280;60755;51.374;10.662;2023-07-31T11:11:13;96589.16;;;21.16;71.59
72677;BME280;60755;51.374;10.662;2023-07-31T11:13:42;96592.72;;;21.46;71.73
72677;BME280;60755;51.374;10.662;2023-07-31T11:16:10;96597.00;;;21.30;69.38
72677;BME280;60755;51.374;10.662;2023-07-31T11:18:39;96578.06;;;21.53;70.82
72677;BME280;60755;51.374;10.662;2023-07-31T11:21:07;96576.31;;;21.86;69.42
72677;BME280;60755;51.374;10.662;2023-07-31T11:23:37;96579.00;;;21.48;71.39
72677;BME280;60755;51.374;10.662;2023-07-31T11:26:06;96579.13;;;21.60;70.75
72677;BME280;60755;51.374;10.662;2023-07-31T11:28:34;96569.34;;;21.94;69.65
72677;BME280;60755;51.374;10.662;2023-07-31T11:31:01;96573.88;;;22.02;68.27
72677;BME280;60755;51.374;10.662;2023-07-31T11:33:29;96570.00;;;21.06;70.40
72677;BME280;60755;51.374;10.662;2023-07-31T11:35:56;96565.06;;;20.70;71.33
72677;BME280;60755;51.374;10.662;2023-07-31T11:38:26;96562.81;;;20.89;71.50
72677;BME280;60755;51.374;10.662;2023-07-31T11:40:54;96564.84;;;20.92;70.64
72677;BME280;60755;51.374;10.662;2023-07-31T11:43:21;96541.03;;;20.70;71.42
72677;BME280;60755;51.374;10.662;2023-07-31T11:45:50;96558.63;;;20.45;71.74
72677;BME280;60755;51.374;10.662;2023-07-31T11:48:21;96555.59;;;20.20;71.88
72677;BME280;60755;51.374;10.662;2023-07-31T11:50:50;96537.72;;;20.64;71.30
72677;BME280;60755;51.374;10.662;2023-07-31T11:53:20;96533.19;;;20.47;71.69
72677;BME280;60755;51.374;10.662;2023-07-31T11:55:49;96541.97;;;20.22;71.77
72677;BME280;60755;51.374;10.662;2023-07-31T11:58:17;96536.63;;;20.39;71.50
72677;BME280;60755;51.374;10.662;2023-07-31T12:00:46;96540.88;;;20.66;69.98
72677;BME280;60755;51.374;10.662;2023-07-31T12:03:13;96535.69;;;20.52;70.90
72677;BME280;60755;51.374;10.662;2023-07-31T12:05:40;96543.81;;;20.82;68.91
72677;BME280;60755;51.374;10.662;2023-07-31T12:08:11;96535.66;;;21.42;68.48
72677;BME280;60755;51.374;10.662;2023-07-31T12:10:38;96546.94;;;20.84;69.13
72677;BME280;60755;51.374;10.662;2023-07-31T12:13:09;96534.88;;;20.69;70.51
72677;BME280;60755;51.374;10.662;2023-07-31T12:15:40;96539.91;;;20.10;71.55
72677;BME280;60755;51.374;10.662;2023-07-31T12:18:09;96535.63;;;19.66;73.66
72677;BME280;60755;51.374;10.662;2023-07-31T12:20:40;96535.34;;;19.93;72.79
72677;BME280;60755;51.374;10.662;2023-07-31T12:23:13;96532.41;;;20.29;72.09
72677;BME280;60755;51.374;10.662;2023-07-31T12:25:40;96528.50;;;21.08;70.79
72677;BME280;60755;51.374;10.662;2023-07-31T12:28:09;96546.28;;;21.81;67.94
72677;BME280;60755;51.374;10.662;2023-07-31T12:30:39;96524.13;;;22.01;66.89
72677;BME280;60755;51.374;10.662;2023-07-31T12:33:12;96530.50;;;21.88;65.23
72677;BME280;60755;51.374;10.662;2023-07-31T12:35:43;96536.63;;;21.29;67.34
72677;BME280;60755;51.374;10.662;2023-07-31T12:38:11;96529.53;;;20.86;69.00
72677;BME280;60755;51.374;10.662;2023-07-31T12:40:39;96526.94;;;21.07;68.96
72677;BME280;60755;51.374;10.662;2023-07-31T12:43:07;96532.84;;;20.75;68.47
72677;BME280;60755;51.374;10.662;2023-07-31T12:45:35;96521.78;;;21.02;68.45
72677;BME280;60755;51.374;10.662;2023-07-31T12:48:02;96522.84;;;21.10;68.70
72677;BME280;60755;51.374;10.662;2023-07-31T12:50:30;96523.81;;;21.05;67.27
72677;BME280;60755;51.374;10.662;2023-07-31T12:52:57;96522.75;;;20.89;67.74
72677;BME280;60755;51.374;10.662;2023-07-31T12:55:24;96512.47;;;21.08;69.22